Odessa, Minnesota
Current Conditions -  °F | °C
As of 10:14 PM on Sunday 23 Nov 2014 (Local Time) from KVVV Reporting Station
Overcast Overcast  
Wind Chill:   Ceiling: 1300
Heat Index: 21°   Visibility: 7mi
Dew Point: 18°   Wind: 22mph
Humidity: 86%   Direction: 310°NW
Pressure: 29.53"   Gusts: 31mph
Location:  45.26°N, 96.33°W
Report Text: KVVV 240414Z AUTO 31019G27KT 7SM OVC013 M06/M08 A2953 RMK AO2
Loading
Personal Weather Stations






























Interactive Weather Map New forecast layout! Learn more

10-Day Weather Forecast

Advertisements
Track Severe Weather on mobile